createdAt,value
2024-05-09T00:00:18.475Z,86188.97
2024-05-09T00:02:52.443Z,86181.03
2024-05-09T00:05:18.803Z,86182.66
2024-05-09T00:07:45.130Z,86185.03
2024-05-09T00:10:18.301Z,86180.63
2024-05-09T00:12:51.718Z,86176.56
2024-05-09T00:15:18.003Z,86174.66
2024-05-09T00:17:44.485Z,86175.59
2024-05-09T00:20:17.633Z,86175.00
2024-05-09T00:22:50.264Z,86173.97
2024-05-09T00:25:16.665Z,86168.38
2024-05-09T00:27:42.931Z,86169.81
2024-05-09T00:30:14.348Z,86166.94
2024-05-09T00:32:44.041Z,86171.91
2024-05-09T00:35:10.414Z,86172.34
2024-05-09T00:37:36.692Z,86172.09
2024-05-09T00:40:03.547Z,86172.06
2024-05-09T00:42:29.906Z,86170.66
2024-05-09T00:44:56.211Z,86172.56
2024-05-09T00:47:22.726Z,86166.84
2024-05-09T00:49:49.236Z,86170.69
2024-05-09T00:52:15.646Z,86160.84
2024-05-09T00:54:41.958Z,86170.66
2024-05-09T00:57:08.225Z,86167.66
2024-05-09T00:59:34.610Z,86170.97
2024-05-09T01:02:01.040Z,86168.34
2024-05-09T01:04:27.441Z,86162.66
2024-05-09T01:06:53.754Z,86161.28
2024-05-09T01:09:20.038Z,86163.66
2024-05-09T01:11:46.495Z,86171.31
2024-05-09T01:14:12.884Z,86165.06
2024-05-09T01:16:39.186Z,86159.28
2024-05-09T01:19:05.593Z,86165.63
2024-05-09T01:21:31.907Z,86163.34
2024-05-09T01:23:58.193Z,86155.25
2024-05-09T01:26:24.564Z,86161.91
2024-05-09T01:28:50.977Z,86157.28
2024-05-09T01:31:17.301Z,86156.06
2024-05-09T01:33:43.720Z,86151.00
2024-05-09T01:36:10.082Z,86151.63
2024-05-09T01:38:36.451Z,86163.66
2024-05-09T01:41:02.891Z,86156.00
2024-05-09T01:43:29.224Z,86153.97
2024-05-09T01:45:55.480Z,86153.88
2024-05-09T01:48:21.896Z,86155.72
2024-05-09T01:50:48.269Z,86160.94
2024-05-09T01:53:15.286Z,86163.81
2024-05-09T01:55:41.769Z,86157.06
2024-05-09T01:58:08.031Z,86159.28
2024-05-09T02:00:39.538Z,86164.06
2024-05-09T02:03:08.522Z,86166.00
2024-05-09T02:05:35.187Z,86169.00
2024-05-09T02:08:01.583Z,86171.09
2024-05-09T02:10:32.483Z,86167.69
2024-05-09T02:12:59.657Z,86163.91
2024-05-09T02:15:25.934Z,86165.28
2024-05-09T02:17:52.424Z,86163.06
2024-05-09T02:20:27.444Z,86161.25
2024-05-09T02:23:00.175Z,86152.97
2024-05-09T02:25:26.478Z,86154.88
2024-05-09T02:27:52.747Z,86154.34
2024-05-09T02:30:26.318Z,86153.34
2024-05-09T02:33:04.293Z,86151.00
2024-05-09T02:35:30.747Z,86160.97
2024-05-09T02:37:57.088Z,86149.28
2024-05-09T02:40:33.039Z,86149.25
2024-05-09T02:43:03.374Z,86137.19
2024-05-09T02:45:29.634Z,86147.25
2024-05-09T02:47:56.135Z,86140.75
2024-05-09T02:50:29.990Z,86131.25
2024-05-09T02:53:06.342Z,86134.13
2024-05-09T02:55:32.980Z,86143.09
2024-05-09T02:57:59.538Z,86138.41
2024-05-09T03:00:34.658Z,86143.25
2024-05-09T03:03:05.821Z,86133.56
2024-05-09T03:05:32.562Z,86133.63
2024-05-09T03:07:58.928Z,86125.94
2024-05-09T03:10:28.660Z,86129.63
2024-05-09T03:12:55.575Z,86132.22
2024-05-09T03:15:22.132Z,86128.25
2024-05-09T03:17:48.598Z,86129.94
2024-05-09T03:20:20.683Z,86125.13
2024-05-09T03:22:52.162Z,86124.28
2024-05-09T03:25:19.728Z,86132.13
2024-05-09T03:27:46.010Z,86126.44
2024-05-09T03:30:18.381Z,86121.88
2024-05-09T03:32:48.562Z,86122.31
2024-05-09T03:35:15.089Z,86114.91
2024-05-09T03:37:41.450Z,86120.13
2024-05-09T03:40:11.799Z,86122.75
2024-05-09T03:42:41.040Z,86128.72
2024-05-09T03:45:07.310Z,86115.84
2024-05-09T03:47:33.773Z,86122.22
2024-05-09T03:50:00.272Z,86116.16
2024-05-09T03:52:26.574Z,86112.34
2024-05-09T03:54:52.903Z,86115.31
2024-05-09T03:57:19.169Z,86121.09
2024-05-09T03:59:45.426Z,86125.28
2024-05-09T04:02:11.884Z,86126.16
2024-05-09T04:04:38.263Z,86120.53
2024-05-09T04:07:04.600Z,86130.81
2024-05-09T04:09:30.881Z,86132.72
2024-05-09T04:11:57.338Z,86140.13
2024-05-09T04:14:23.697Z,86135.81
2024-05-09T04:16:50.095Z,86141.56
2024-05-09T04:19:16.610Z,86142.47
2024-05-09T04:21:42.961Z,86149.88
2024-05-09T04:24:09.230Z,86142.00
2024-05-09T04:26:35.620Z,86148.94
2024-05-09T04:29:02.069Z,86143.88
2024-05-09T04:31:28.390Z,86146.75
2024-05-09T04:33:54.802Z,86146.75
2024-05-09T04:36:21.216Z,86151.94
2024-05-09T04:38:47.507Z,86158.09
2024-05-09T04:41:13.903Z,86171.47
2024-05-09T04:43:40.227Z,86165.91
2024-05-09T04:46:06.502Z,86161.88
2024-05-09T04:48:32.818Z,86168.47
2024-05-09T04:50:59.153Z,86173.00
2024-05-09T04:53:25.508Z,86170.59
2024-05-09T04:55:51.893Z,86169.00
2024-05-09T04:58:18.223Z,86177.00
2024-05-09T05:00:44.549Z,86174.19
2024-05-09T05:03:13.446Z,86181.53
2024-05-09T05:05:42.021Z,86183.00
2024-05-09T05:08:08.430Z,86183.03
2024-05-09T05:10:36.582Z,86185.09
2024-05-09T05:13:06.163Z,86178.50
2024-05-09T05:15:32.445Z,86184.00
2024-05-09T05:17:58.931Z,86190.38
2024-05-09T05:20:32.679Z,86190.38
2024-05-09T05:23:00.146Z,86189.44
2024-05-09T05:25:26.500Z,86182.09
2024-05-09T05:27:52.791Z,86192.53
2024-05-09T05:30:24.987Z,86186.84
2024-05-09T05:32:55.191Z,86197.53
2024-05-09T05:35:21.614Z,86195.06
2024-05-09T05:37:47.987Z,86196.97
2024-05-09T05:40:24.655Z,86194.34
2024-05-09T05:42:54.580Z,86202.19
2024-05-09T05:45:20.853Z,86206.81
2024-05-09T05:47:47.243Z,86206.41
2024-05-09T05:50:23.784Z,86199.28
2024-05-09T05:52:54.041Z,86206.47
2024-05-09T05:55:20.370Z,86197.59
2024-05-09T05:57:46.655Z,86197.06
2024-05-09T06:00:21.395Z,86190.72
2024-05-09T06:02:51.882Z,86194.31
2024-05-09T06:05:18.514Z,86184.13
2024-05-09T06:07:44.882Z,86190.31
2024-05-09T06:10:17.374Z,86192.16
2024-05-09T06:12:47.919Z,86187.38
2024-05-09T06:15:14.195Z,86190.03
2024-05-09T06:17:40.550Z,86182.78
2024-05-09T06:20:13.441Z,86181.69
2024-05-09T06:22:46.572Z,86171.72
2024-05-09T06:25:12.893Z,86170.78
2024-05-09T06:27:39.160Z,86174.09
2024-05-09T06:30:08.193Z,86165.63
2024-05-09T06:32:36.224Z,86175.38
2024-05-09T06:35:02.663Z,86171.34
2024-05-09T06:37:28.969Z,86167.25
2024-05-09T06:39:55.250Z,86162.69
2024-05-09T06:42:21.517Z,86162.69
2024-05-09T06:44:47.781Z,86163.81
2024-05-09T06:47:14.263Z,86154.19
2024-05-09T06:49:40.571Z,86158.66
2024-05-09T06:52:06.870Z,86160.66
2024-05-09T06:54:33.131Z,86160.13
2024-05-09T06:56:59.405Z,86160.22
2024-05-09T06:59:25.790Z,86155.06
2024-05-09T07:01:52.129Z,86159.66
2024-05-09T07:04:18.504Z,86155.31
2024-05-09T07:06:44.814Z,86165.84
2024-05-09T07:09:11.113Z,86159.97
2024-05-09T07:11:37.666Z,86156.81
2024-05-09T07:14:04.077Z,86158.63
2024-05-09T07:16:30.352Z,86158.84
2024-05-09T07:18:56.774Z,86148.91
2024-05-09T07:21:23.313Z,86148.00
2024-05-09T07:23:49.703Z,86150.81
2024-05-09T07:26:16.254Z,86155.91
2024-05-09T07:28:42.603Z,86155.06
2024-05-09T07:31:08.902Z,86151.03
2024-05-09T07:33:35.397Z,86148.56
2024-05-09T07:36:01.719Z,86148.53
2024-05-09T07:38:28.020Z,86151.06
2024-05-09T07:40:54.367Z,86156.09
2024-05-09T07:43:20.652Z,86149.63
2024-05-09T07:45:52.576Z,86145.38
2024-05-09T07:53:38.454Z,86151.06
2024-05-09T07:56:06.014Z,86136.00
2024-05-09T07:58:32.500Z,86145.72
2024-05-09T08:00:58.821Z,86140.00
2024-05-09T08:03:25.292Z,86132.81
2024-05-09T08:05:51.819Z,86136.38
2024-05-09T08:08:18.221Z,86131.75
2024-05-09T08:10:44.629Z,86131.66
2024-05-09T08:13:11.120Z,86126.47
2024-05-09T08:15:37.491Z,86133.09
2024-05-09T08:18:03.967Z,86134.91
2024-05-09T08:20:33.731Z,86125.19
2024-05-09T08:23:01.655Z,86125.91
2024-05-09T08:25:28.082Z,86122.63
2024-05-09T08:27:54.408Z,86122.47
2024-05-09T08:30:25.439Z,86112.59
2024-05-09T08:32:58.990Z,86108.63
2024-05-09T08:35:25.420Z,86105.88
2024-05-09T08:37:51.776Z,86097.88
2024-05-09T08:40:24.188Z,86105.31
2024-05-09T08:42:57.149Z,86093.41
2024-05-09T08:45:23.445Z,86094.91
2024-05-09T08:47:49.838Z,86089.25
2024-05-09T08:50:28.585Z,86097.22
2024-05-09T08:53:04.092Z,86091.66
2024-05-09T08:55:30.374Z,86093.50
2024-05-09T08:57:56.699Z,86094.47
2024-05-09T09:00:33.407Z,86098.94
2024-05-09T09:03:03.000Z,86097.03
2024-05-09T09:05:29.521Z,86103.53
2024-05-09T09:07:55.923Z,86100.09
2024-05-09T09:10:29.584Z,86104.06
2024-05-09T09:12:58.417Z,86108.03
2024-05-09T09:15:24.709Z,86100.69
2024-05-09T09:17:51.105Z,86108.38
2024-05-09T09:20:23.243Z,86103.59
2024-05-09T09:22:55.394Z,86107.88
2024-05-09T09:25:21.668Z,86100.91
2024-05-09T09:27:48.011Z,86108.69
2024-05-09T09:30:27.712Z,86117.88
2024-05-09T09:33:00.634Z,86102.88
2024-05-09T09:35:26.962Z,86112.59
2024-05-09T09:37:53.220Z,86097.22
2024-05-09T09:40:22.320Z,86113.59
2024-05-09T09:42:51.915Z,86106.13
2024-05-09T09:45:18.278Z,86105.78
2024-05-09T09:47:44.804Z,86110.41
2024-05-09T09:50:14.547Z,86112.22
2024-05-09T09:52:43.342Z,86104.41
2024-05-09T09:55:09.775Z,86108.94
2024-05-09T09:57:36.219Z,86097.44
2024-05-09T10:00:05.522Z,86099.66
2024-05-09T10:02:33.691Z,86102.84
2024-05-09T10:05:00.123Z,86099.16
2024-05-09T10:07:26.463Z,86099.47
2024-05-09T10:09:52.971Z,86100.16
2024-05-09T10:12:19.472Z,86101.41
2024-05-09T10:14:45.776Z,86100.34
2024-05-09T10:17:12.046Z,86096.00
2024-05-09T10:19:38.570Z,86092.34
2024-05-09T10:22:04.945Z,86092.06
2024-05-09T10:24:31.294Z,86095.50
2024-05-09T10:26:57.565Z,86099.66
2024-05-09T10:29:23.836Z,86095.91
2024-05-09T10:31:50.242Z,86091.66
2024-05-09T10:34:16.713Z,86087.81
2024-05-09T10:36:43.164Z,86082.25
2024-05-09T10:39:09.575Z,86083.50
2024-05-09T10:41:35.877Z,86075.75
2024-05-09T10:44:03.881Z,86079.19
2024-05-09T10:46:30.213Z,86077.47
2024-05-09T10:48:56.612Z,86076.56
2024-05-09T10:51:23.056Z,86080.94
2024-05-09T10:53:49.331Z,86083.59
2024-05-09T10:56:15.599Z,86071.53
2024-05-09T10:58:41.854Z,86081.03
2024-05-09T11:01:08.210Z,86077.53
2024-05-09T11:03:34.888Z,86073.72
2024-05-09T11:06:01.531Z,86076.69
2024-05-09T11:08:27.820Z,86071.13
2024-05-09T11:10:54.271Z,86072.09
2024-05-09T11:13:20.669Z,86059.72
2024-05-09T11:15:47.077Z,86076.78
2024-05-09T11:18:13.536Z,86063.59
2024-05-09T11:20:40.043Z,86058.88
2024-05-09T11:23:06.432Z,86068.75
2024-05-09T11:25:32.706Z,86058.78
2024-05-09T11:27:59.071Z,86072.00
2024-05-09T11:30:31.538Z,86064.78
2024-05-09T11:32:58.792Z,86064.00
2024-05-09T11:35:25.142Z,86062.38
2024-05-09T11:37:51.409Z,86058.72
2024-05-09T11:40:25.189Z,86059.25
2024-05-09T11:42:54.810Z,86061.72
2024-05-09T11:45:21.094Z,86059.72
2024-05-09T11:47:47.512Z,86057.28
2024-05-09T11:50:22.391Z,86054.97
2024-05-09T11:52:53.621Z,86057.72
2024-05-09T11:55:19.923Z,86053.13
2024-05-09T11:57:46.281Z,86044.59
2024-05-09T12:00:18.205Z,86038.94
2024-05-09T12:02:51.498Z,86038.84
2024-05-09T12:05:18.085Z,86039.69
2024-05-09T12:07:44.462Z,86032.59
2024-05-09T12:10:16.579Z,86044.53
2024-05-09T12:12:45.820Z,86032.97
2024-05-09T12:15:12.092Z,86030.38
2024-05-09T12:17:38.500Z,86021.31
2024-05-09T12:20:09.034Z,86025.47
2024-05-09T12:22:37.473Z,86025.84
2024-05-09T12:25:03.856Z,86028.56
2024-05-09T12:27:30.209Z,86021.72
2024-05-09T12:29:56.484Z,86016.88
2024-05-09T12:32:22.881Z,86017.41
2024-05-09T12:34:49.185Z,86016.72
2024-05-09T12:37:15.585Z,86011.22
2024-05-09T12:39:41.938Z,86003.59
2024-05-09T12:42:08.876Z,86011.22
2024-05-09T12:44:35.157Z,86008.41
2024-05-09T12:47:01.496Z,86006.25
2024-05-09T12:49:27.848Z,86004.28
2024-05-09T12:51:54.248Z,85997.69
2024-05-09T12:54:20.548Z,86002.53
2024-05-09T12:56:46.806Z,86004.09
2024-05-09T12:59:13.070Z,86020.41
2024-05-09T13:01:39.431Z,86002.00
2024-05-09T13:04:05.990Z,86006.94
2024-05-09T13:06:32.511Z,86010.00
2024-05-09T13:08:58.825Z,86000.88
2024-05-09T13:11:25.165Z,86007.41
2024-05-09T13:13:51.469Z,86001.59
2024-05-09T13:16:17.927Z,85999.69
2024-05-09T13:18:44.431Z,85989.88
2024-05-09T13:21:10.807Z,85999.22
2024-05-09T13:23:37.100Z,86009.75
2024-05-09T13:26:03.637Z,85990.31
2024-05-09T13:28:29.941Z,85995.13
2024-05-09T13:30:56.337Z,85984.59
2024-05-09T13:33:22.845Z,85981.69
2024-05-09T13:35:50.905Z,85977.81
2024-05-09T13:38:17.599Z,85989.78
2024-05-09T13:40:44.185Z,85998.03
2024-05-09T13:43:10.718Z,85991.81
2024-05-09T13:45:37.062Z,85998.88
2024-05-09T13:48:03.969Z,85980.28
2024-05-09T13:50:34.758Z,85983.47
2024-05-09T13:53:02.950Z,85989.78
2024-05-09T13:55:29.274Z,85998.34
2024-05-09T13:57:55.706Z,85995.19
2024-05-09T14:00:37.588Z,85992.88
2024-05-09T14:03:08.538Z,86005.50
2024-05-09T14:05:35.274Z,85995.28
2024-05-09T14:08:01.700Z,85996.25
2024-05-09T14:10:31.169Z,85988.66
2024-05-09T14:12:58.390Z,85994.50
2024-05-09T14:15:24.693Z,85978.91
2024-05-09T14:17:51.015Z,85982.25
2024-05-09T14:20:27.982Z,85981.59
2024-05-09T14:22:57.590Z,85981.81
2024-05-09T14:25:23.912Z,85984.38
2024-05-09T14:27:50.243Z,85973.06
2024-05-09T14:30:22.949Z,85969.69
2024-05-09T14:32:57.005Z,85968.78
2024-05-09T14:35:23.343Z,85976.53
2024-05-09T14:37:49.655Z,85967.28
2024-05-09T14:40:30.492Z,85975.13
2024-05-09T14:43:04.221Z,85972.53
2024-05-09T14:45:30.580Z,85971.19
2024-05-09T14:47:57.035Z,85976.97
2024-05-09T14:50:28.309Z,85969.56
2024-05-09T14:53:01.296Z,85971.56
2024-05-09T14:55:27.682Z,85972.25
2024-05-09T14:57:54.098Z,85966.22
2024-05-09T15:00:26.411Z,85962.16
2024-05-09T15:02:59.202Z,85961.97
2024-05-09T15:05:25.591Z,85961.78
2024-05-09T15:07:51.906Z,85961.22
2024-05-09T15:10:26.562Z,85956.41
2024-05-09T15:12:59.847Z,85952.91
2024-05-09T15:15:26.163Z,85948.03
2024-05-09T15:17:52.551Z,85949.63
2024-05-09T15:20:27.429Z,85957.50
2024-05-09T15:22:59.970Z,85956.34
2024-05-09T15:25:27.366Z,85959.28
2024-05-09T15:27:53.738Z,85957.75
2024-05-09T15:30:28.178Z,85962.22
2024-05-09T15:32:57.774Z,85961.75
2024-05-09T15:35:24.144Z,85947.31
2024-05-09T15:37:50.424Z,85960.38
2024-05-09T15:40:26.164Z,85961.13
2024-05-09T15:43:01.615Z,85959.69
2024-05-09T15:45:27.929Z,85959.16
2024-05-09T15:47:54.338Z,85958.59
2024-05-09T15:50:28.686Z,85956.47
2024-05-09T15:53:02.607Z,85952.97
2024-05-09T15:55:28.907Z,85973.69
2024-05-09T15:57:55.205Z,85971.16
2024-05-09T16:00:28.754Z,85960.22
2024-05-09T16:03:04.651Z,85965.69
2024-05-09T16:05:31.091Z,85960.41
2024-05-09T16:07:57.503Z,85960.41
2024-05-09T16:10:29.782Z,85966.94
2024-05-09T16:12:58.826Z,85963.94
2024-05-09T16:15:25.122Z,85962.34
2024-05-09T16:17:51.463Z,85954.19
2024-05-09T16:20:29.030Z,85953.34
2024-05-09T16:23:03.078Z,85954.41
2024-05-09T16:25:29.386Z,85952.94
2024-05-09T16:27:55.730Z,85958.56
2024-05-09T16:30:28.302Z,85954.53
2024-05-09T16:33:00.798Z,85959.84
2024-05-09T16:35:27.127Z,85965.19
2024-05-09T16:37:53.507Z,85960.41
2024-05-09T16:40:29.303Z,85957.16
2024-05-09T16:43:01.060Z,85964.56
2024-05-09T16:45:27.388Z,85962.72
2024-05-09T16:47:53.747Z,85969.75
2024-05-09T16:50:26.426Z,85965.09
2024-05-09T16:52:57.615Z,85962.41
2024-05-09T16:55:24.867Z,85962.88
2024-05-09T16:57:51.197Z,85965.44
2024-05-09T17:00:25.615Z,85966.72
2024-05-09T17:02:58.309Z,85967.03
2024-05-09T17:05:24.790Z,85973.00
2024-05-09T17:07:51.212Z,85961.91
2024-05-09T17:10:26.468Z,85964.94
2024-05-09T17:12:58.439Z,85965.59
2024-05-09T17:15:24.742Z,85966.84
2024-05-09T17:17:51.047Z,85967.78
2024-05-09T17:20:28.829Z,85965.44
2024-05-09T17:22:59.636Z,85972.63
2024-05-09T17:25:26.061Z,85978.81
2024-05-09T17:27:52.405Z,85975.63
2024-05-09T17:30:28.326Z,85981.81
2024-05-09T17:32:58.873Z,85990.50
2024-05-09T17:35:25.244Z,85991.03
2024-05-09T17:37:51.505Z,85989.28
2024-05-09T17:40:27.073Z,85993.69
2024-05-09T17:42:57.565Z,85991.16
2024-05-09T17:45:23.859Z,85994.47
2024-05-09T17:47:50.209Z,86005.72
2024-05-09T17:50:23.872Z,86005.41
2024-05-09T17:52:54.116Z,85998.47
2024-05-09T17:55:20.493Z,85996.97
2024-05-09T17:57:46.935Z,85995.66
2024-05-09T18:00:17.309Z,85988.50
2024-05-09T18:02:44.055Z,85992.44
2024-05-09T18:05:10.447Z,85994.13
2024-05-09T18:07:36.810Z,86003.22
2024-05-09T18:10:03.231Z,86004.97
2024-05-09T18:12:30.076Z,86005.50
2024-05-09T18:14:56.426Z,86007.28
2024-05-09T18:17:25.649Z,86018.22
2024-05-09T18:19:52.156Z,86008.78
2024-05-09T18:22:18.741Z,86013.78
2024-05-09T18:24:45.138Z,86020.16
2024-05-09T18:27:11.431Z,86018.06
2024-05-09T18:29:37.711Z,86015.25
2024-05-09T18:32:04.009Z,86023.44
2024-05-09T18:34:30.598Z,86023.78
2024-05-09T18:36:57.043Z,86019.91
2024-05-09T18:39:23.344Z,86029.66
2024-05-09T18:41:49.607Z,86030.88
2024-05-09T18:44:15.859Z,86028.75
2024-05-09T18:46:42.127Z,86036.63
2024-05-09T18:49:08.518Z,86038.69
2024-05-09T18:51:34.906Z,86039.63
2024-05-09T18:54:01.226Z,86042.94
2024-05-09T18:56:27.515Z,86040.03
2024-05-09T18:58:53.780Z,86044.59
2024-05-09T19:01:20.207Z,86050.56
2024-05-09T19:03:46.680Z,86045.59
2024-05-09T19:06:13.036Z,86052.94
2024-05-09T19:08:39.304Z,86063.94
2024-05-09T19:11:05.685Z,86059.97
2024-05-09T19:13:32.111Z,86064.94
2024-05-09T19:15:58.487Z,86075.47
2024-05-09T19:18:24.975Z,86079.41
2024-05-09T19:20:51.499Z,86086.66
2024-05-09T19:23:17.858Z,86085.59
2024-05-09T19:25:44.150Z,86088.56
2024-05-09T19:28:10.627Z,86091.81
2024-05-09T19:30:40.954Z,86096.38
2024-05-09T19:33:09.563Z,86101.19
2024-05-09T19:35:36.765Z,86098.84
2024-05-09T19:38:03.117Z,86105.34
2024-05-09T19:40:32.342Z,86099.59
2024-05-09T19:43:00.414Z,86102.81
2024-05-09T19:45:26.812Z,86108.44
2024-05-09T19:47:53.280Z,86111.41
2024-05-09T19:50:26.405Z,86116.75
2024-05-09T19:52:58.790Z,86119.13
2024-05-09T19:55:25.083Z,86119.47
2024-05-09T19:57:51.380Z,86116.72
2024-05-09T20:00:22.367Z,86116.06
2024-05-09T20:02:55.525Z,86126.53
2024-05-09T20:05:22.149Z,86123.06
2024-05-09T20:07:48.534Z,86129.81
2024-05-09T20:10:23.250Z,86134.25
2024-05-09T20:12:52.840Z,86135.75
2024-05-09T20:15:19.178Z,86132.91
2024-05-09T20:17:45.572Z,86134.25
2024-05-09T20:20:20.296Z,86132.81
2024-05-09T20:22:54.393Z,86136.38
2024-05-09T20:25:20.815Z,86135.88
2024-05-09T20:27:47.199Z,86147.91
2024-05-09T20:30:20.896Z,86144.44
2024-05-09T20:32:51.484Z,86141.22
2024-05-09T20:35:17.845Z,86142.97
2024-05-09T20:37:44.140Z,86135.66
2024-05-09T20:40:15.652Z,86141.84
2024-05-09T20:42:47.964Z,86142.28
2024-05-09T20:45:14.262Z,86131.47
2024-05-09T20:47:40.618Z,86138.00
2024-05-09T20:50:13.731Z,86144.63
2024-05-09T20:52:46.651Z,86142.00
2024-05-09T20:55:13.123Z,86147.09
2024-05-09T20:57:39.618Z,86145.59
2024-05-09T21:00:09.561Z,86148.03
2024-05-09T21:02:41.677Z,86143.72
2024-05-09T21:05:08.281Z,86145.16
2024-05-09T21:07:34.721Z,86144.91
2024-05-09T21:10:01.024Z,86152.88
2024-05-09T21:12:27.308Z,86152.19
2024-05-09T21:14:53.592Z,86149.38
2024-05-09T21:17:19.966Z,86139.97
2024-05-09T21:19:46.323Z,86145.66
2024-05-09T21:22:12.693Z,86148.34
2024-05-09T21:24:39.043Z,86149.59
2024-05-09T21:27:05.338Z,86155.28
2024-05-09T21:29:31.612Z,86152.75
2024-05-09T21:31:57.904Z,86151.91
2024-05-09T21:34:24.328Z,86153.78
2024-05-09T21:36:50.684Z,86149.19
2024-05-09T21:39:16.969Z,86150.94
2024-05-09T21:41:43.239Z,86157.09
2024-05-09T21:44:09.522Z,86154.28
2024-05-09T21:46:35.880Z,86151.75
2024-05-09T21:49:04.777Z,86150.31
2024-05-09T21:51:31.087Z,86150.78
2024-05-09T21:53:57.345Z,86158.50
2024-05-09T21:56:23.596Z,86163.38
2024-05-09T21:58:49.898Z,86164.75
2024-05-09T22:01:16.351Z,86160.50
2024-05-09T22:03:42.919Z,86163.25
2024-05-09T22:06:09.273Z,86164.25
2024-05-09T22:08:35.561Z,86161.91
2024-05-09T22:11:02.022Z,86173.09
2024-05-09T22:13:28.494Z,86170.66
2024-05-09T22:15:54.877Z,86175.22
2024-05-09T22:18:21.537Z,86173.53
2024-05-09T22:20:47.982Z,86171.34
2024-05-09T22:23:14.246Z,86175.06
2024-05-09T22:25:40.537Z,86179.81
2024-05-09T22:28:06.974Z,86179.09
2024-05-09T22:30:37.571Z,86179.91
2024-05-09T22:33:06.311Z,86180.00
2024-05-09T22:35:32.846Z,86180.97
2024-05-09T22:37:59.158Z,86176.72
2024-05-09T22:40:37.858Z,86185.59
2024-05-09T22:43:11.802Z,86185.06
2024-05-09T22:45:38.194Z,86199.38
2024-05-09T22:48:04.605Z,86202.56
2024-05-09T22:50:33.331Z,86202.53
2024-05-09T22:53:00.067Z,86195.88
2024-05-09T22:55:26.354Z,86201.81
2024-05-09T22:57:52.685Z,86202.53
2024-05-09T23:00:21.877Z,86200.63
2024-05-09T23:02:52.564Z,86210.97
2024-05-09T23:05:18.956Z,86204.06
2024-05-09T23:07:45.317Z,86203.41
2024-05-09T23:10:17.129Z,86203.88
2024-05-09T23:12:47.903Z,86195.06
2024-05-09T23:15:14.184Z,86194.63
2024-05-09T23:17:40.540Z,86195.75
2024-05-09T23:20:08.884Z,86187.19
2024-05-09T23:22:37.477Z,86189.34
2024-05-09T23:25:03.792Z,86181.75
2024-05-09T23:27:32.426Z,86191.56
2024-05-09T23:29:58.747Z,86195.84
2024-05-09T23:32:25.160Z,86196.09
2024-05-09T23:34:51.521Z,86193.69
2024-05-09T23:37:17.935Z,86187.47
2024-05-09T23:39:44.274Z,86191.28
2024-05-09T23:42:10.556Z,86192.50
2024-05-09T23:44:36.800Z,86190.09
2024-05-09T23:47:03.152Z,86186.97
2024-05-09T23:49:29.484Z,86189.16
2024-05-09T23:51:55.778Z,86187.50
2024-05-09T23:54:22.100Z,86195.63
2024-05-09T23:56:48.368Z,86188.00
2024-05-09T23:59:14.657Z,86182.53
